createdAt,value
2023-01-29T00:00:22.423Z,100608.06
2023-01-29T00:02:50.951Z,100602.77
2023-01-29T00:05:28.021Z,100603.89
2023-01-29T00:07:57.399Z,100602.73
2023-01-29T00:10:26.486Z,100600.59
2023-01-29T00:12:57.542Z,100599.31
2023-01-29T00:15:25.935Z,100601.27
2023-01-29T00:17:54.636Z,100603.50
2023-01-29T00:20:23.072Z,100601.95
2023-01-29T00:22:51.875Z,100598.44
2023-01-29T00:25:20.275Z,100597.48
2023-01-29T00:27:49.166Z,100600.27
2023-01-29T00:30:20.219Z,100596.02
2023-01-29T00:32:49.066Z,100592.44
2023-01-29T00:35:17.800Z,100592.45
2023-01-29T00:37:46.746Z,100596.60
2023-01-29T00:40:18.339Z,100604.19
2023-01-29T00:43:06.822Z,100599.64
2023-01-29T00:45:37.124Z,100600.27
2023-01-29T00:48:07.444Z,100602.74
2023-01-29T00:50:39.254Z,100601.57
2023-01-29T00:53:08.118Z,100615.28
2023-01-29T00:55:37.021Z,100615.98
2023-01-29T00:58:06.133Z,100618.55
2023-01-29T01:00:34.721Z,100618.55
2023-01-29T01:03:05.835Z,100619.02
2023-01-29T01:05:35.600Z,100619.67
2023-01-29T01:08:25.362Z,100616.60
2023-01-29T01:11:05.804Z,100614.78
2023-01-29T01:13:34.462Z,100610.80
2023-01-29T01:16:08.881Z,100607.86
2023-01-29T01:18:38.338Z,100608.34
2023-01-29T01:21:07.089Z,100609.94
2023-01-29T01:23:35.839Z,100605.42
2023-01-29T01:26:09.444Z,100606.82
2023-01-29T01:28:39.861Z,100608.55
2023-01-29T01:31:10.567Z,100605.38
2023-01-29T01:33:39.237Z,100605.55
2023-01-29T01:36:10.064Z,100605.42
2023-01-29T01:38:44.852Z,100607.35
2023-01-29T01:41:18.639Z,100604.95
2023-01-29T01:43:51.313Z,100606.61
2023-01-29T01:46:20.530Z,100605.08
2023-01-29T01:48:53.574Z,100602.96
2023-01-29T01:51:22.639Z,100600.79
2023-01-29T01:53:58.455Z,100604.05
2023-01-29T01:56:29.628Z,100607.48
2023-01-29T01:58:58.389Z,100607.49
2023-01-29T02:01:28.260Z,100606.92
2023-01-29T02:04:20.886Z,100606.08
2023-01-29T02:07:08.371Z,100607.11
2023-01-29T02:10:11.764Z,100607.30
2023-01-29T02:12:40.841Z,100607.27
2023-01-29T02:15:10.031Z,100600.23
2023-01-29T02:17:39.042Z,100599.13
2023-01-29T02:20:25.018Z,100600.41
2023-01-29T02:23:23.572Z,100597.30
2023-01-29T02:26:31.158Z,100593.54
2023-01-29T02:29:27.550Z,100592.80
2023-01-29T02:31:59.052Z,100590.91
2023-01-29T02:35:19.025Z,100589.55
2023-01-29T02:37:54.934Z,100590.04
2023-01-29T02:41:05.635Z,100589.95
2023-01-29T02:43:56.144Z,100594.61
2023-01-29T02:46:47.554Z,100596.57
2023-01-29T02:49:25.506Z,100599.45
2023-01-29T02:51:56.712Z,100596.70
2023-01-29T02:54:46.556Z,100596.06
2023-01-29T02:57:29.812Z,100596.10
2023-01-29T03:00:19.148Z,100600.27
2023-01-29T03:03:00.483Z,100596.27
2023-01-29T03:05:32.914Z,100601.27
2023-01-29T03:08:06.825Z,100598.90
2023-01-29T03:10:40.568Z,100600.34
2023-01-29T03:13:17.690Z,100600.73
2023-01-29T03:15:48.674Z,100597.19
2023-01-29T03:18:46.150Z,100595.79
2023-01-29T03:21:43.879Z,100597.30
2023-01-29T03:25:08.351Z,100601.69
2023-01-29T03:28:14.489Z,100605.60
2023-01-29T03:31:11.023Z,100600.17
2023-01-29T03:34:18.498Z,100599.38
2023-01-29T03:36:56.302Z,100599.40
2023-01-29T03:39:28.668Z,100597.43
2023-01-29T03:42:20.854Z,100596.36
2023-01-29T03:44:55.225Z,100599.82
2023-01-29T03:47:42.456Z,100596.76
2023-01-29T03:50:17.874Z,100595.95
2023-01-29T03:53:02.884Z,100589.37
2023-01-29T03:55:43.294Z,100591.92
2023-01-29T03:58:25.885Z,100596.70
2023-01-29T04:00:57.009Z,100599.00
2023-01-29T04:03:34.717Z,100594.63
2023-01-29T04:06:43.450Z,100589.36
2023-01-29T04:09:16.640Z,100590.77
2023-01-29T04:11:48.758Z,100591.26
2023-01-29T04:14:17.288Z,100591.46
2023-01-29T04:16:50.315Z,100595.70
2023-01-29T04:19:40.693Z,100597.70
2023-01-29T04:22:39.665Z,100596.06
2023-01-29T04:25:16.194Z,100591.88
2023-01-29T04:28:12.178Z,100596.07
2023-01-29T04:30:44.335Z,100596.09
2023-01-29T04:33:31.599Z,100598.02
2023-01-29T04:36:11.134Z,100602.66
2023-01-29T04:39:17.587Z,100604.70
2023-01-29T04:42:07.551Z,100607.39
2023-01-29T04:44:45.450Z,100607.17
2023-01-29T04:47:41.473Z,100605.55
2023-01-29T04:50:35.933Z,100606.20
2023-01-29T04:53:04.312Z,100603.14
2023-01-29T04:55:36.971Z,100602.51
2023-01-29T04:58:16.736Z,100601.24
2023-01-29T05:00:45.855Z,100599.29
2023-01-29T05:03:15.229Z,100603.21
2023-01-29T05:05:45.961Z,100602.27
2023-01-29T05:08:16.411Z,100604.14
2023-01-29T05:10:45.972Z,100604.29
2023-01-29T05:13:14.877Z,100600.86
2023-01-29T05:15:53.175Z,100601.16
2023-01-29T05:18:22.128Z,100600.46
2023-01-29T05:20:51.318Z,100599.80
2023-01-29T05:23:21.640Z,100602.67
2023-01-29T05:25:50.988Z,100601.40
2023-01-29T05:28:19.979Z,100599.97
2023-01-29T05:30:50.424Z,100602.45
2023-01-29T05:33:23.423Z,100606.58
2023-01-29T05:35:51.903Z,100602.10
2023-01-29T05:38:20.952Z,100607.02
2023-01-29T05:40:49.415Z,100609.51
2023-01-29T05:43:19.347Z,100612.95
2023-01-29T05:45:57.601Z,100613.05
2023-01-29T05:48:29.755Z,100612.09
2023-01-29T05:51:04.687Z,100612.52
2023-01-29T05:53:33.755Z,100615.33
2023-01-29T05:56:03.294Z,100616.95
2023-01-29T05:58:35.569Z,100618.55
2023-01-29T06:01:15.371Z,100620.00
2023-01-29T06:03:45.388Z,100620.39
2023-01-29T06:06:17.602Z,100622.31
2023-01-29T06:08:47.487Z,100618.55
2023-01-29T06:11:18.464Z,100621.42
2023-01-29T06:13:48.130Z,100626.67
2023-01-29T06:16:16.690Z,100626.11
2023-01-29T06:18:45.316Z,100628.45
2023-01-29T06:21:14.080Z,100630.83
2023-01-29T06:23:42.774Z,100629.05
2023-01-29T06:26:12.935Z,100631.44
2023-01-29T06:28:42.485Z,100635.55
2023-01-29T06:31:31.395Z,100632.89
2023-01-29T06:33:59.434Z,100634.09
2023-01-29T06:36:27.906Z,100640.89
2023-01-29T06:38:59.327Z,100637.64
2023-01-29T06:41:28.836Z,100639.05
2023-01-29T06:43:57.603Z,100636.48
2023-01-29T06:46:26.099Z,100632.97
2023-01-29T06:48:54.517Z,100629.84
2023-01-29T06:51:25.259Z,100627.08
2023-01-29T06:53:56.263Z,100629.80
2023-01-29T06:56:24.733Z,100631.87
2023-01-29T06:58:53.784Z,100636.70
2023-01-29T07:01:35.060Z,100635.95
2023-01-29T07:04:05.572Z,100637.77
2023-01-29T07:06:34.089Z,100630.36
2023-01-29T07:09:03.953Z,100628.19
2023-01-29T07:11:38.201Z,100628.02
2023-01-29T07:14:07.554Z,100628.95
2023-01-29T07:16:36.233Z,100630.82
2023-01-29T07:19:05.051Z,100628.52
2023-01-29T07:21:34.713Z,100627.36
2023-01-29T07:24:03.683Z,100625.31
2023-01-29T07:26:32.169Z,100622.81
2023-01-29T07:29:00.608Z,100619.02
2023-01-29T07:31:29.465Z,100621.27
2023-01-29T07:33:58.424Z,100621.69
2023-01-29T07:36:28.647Z,100629.52
2023-01-29T07:38:57.111Z,100626.75
2023-01-29T07:41:26.978Z,100632.09
2023-01-29T07:43:56.555Z,100634.77
2023-01-29T07:46:24.963Z,100637.67
2023-01-29T07:48:54.182Z,100636.59
2023-01-29T07:51:22.915Z,100634.05
2023-01-29T07:53:51.767Z,100626.98
2023-01-29T07:56:23.419Z,100628.69
2023-01-29T07:58:52.964Z,100622.63
2023-01-29T08:01:21.416Z,100618.77
2023-01-29T08:03:51.247Z,100622.05
2023-01-29T08:06:20.152Z,100625.55
2023-01-29T08:08:49.079Z,100622.12
2023-01-29T08:11:18.454Z,100618.80
2023-01-29T08:13:47.032Z,100618.67
2023-01-29T08:16:15.604Z,100624.54
2023-01-29T08:18:48.059Z,100620.80
2023-01-29T08:21:17.159Z,100617.61
2023-01-29T08:23:45.872Z,100619.97
2023-01-29T08:26:14.219Z,100622.44
2023-01-29T08:28:42.627Z,100616.08
2023-01-29T08:31:16.183Z,100618.16
2023-01-29T08:33:45.190Z,100620.55
2023-01-29T08:36:13.945Z,100621.14
2023-01-29T08:38:42.731Z,100623.67
2023-01-29T08:41:12.475Z,100625.30
2023-01-29T08:43:41.523Z,100628.74
2023-01-29T08:46:10.028Z,100626.64
2023-01-29T08:48:38.910Z,100629.95
2023-01-29T08:51:07.599Z,100624.45
2023-01-29T08:53:39.101Z,100624.64
2023-01-29T08:56:07.771Z,100623.23
2023-01-29T08:58:37.248Z,100624.62
2023-01-29T09:01:07.828Z,100624.80
2023-01-29T09:03:36.470Z,100622.05
2023-01-29T09:06:05.076Z,100622.91
2023-01-29T09:08:38.283Z,100622.59
2023-01-29T09:11:08.232Z,100620.48
2023-01-29T09:13:36.679Z,100616.59
2023-01-29T09:16:05.468Z,100607.45
2023-01-29T09:18:33.807Z,100608.14
2023-01-29T09:21:03.024Z,100609.89
2023-01-29T09:23:31.627Z,100608.42
2023-01-29T09:26:00.169Z,100601.72
2023-01-29T09:28:29.253Z,100605.48
2023-01-29T09:31:01.827Z,100599.45
2023-01-29T09:33:31.297Z,100596.85
2023-01-29T09:35:59.822Z,100605.67
2023-01-29T09:38:28.613Z,100608.01
2023-01-29T09:41:07.848Z,100610.20
2023-01-29T09:43:48.470Z,100610.84
2023-01-29T09:46:33.741Z,100609.63
2023-01-29T09:49:06.541Z,100609.14
2023-01-29T09:51:39.471Z,100605.27
2023-01-29T09:54:26.395Z,100607.84
2023-01-29T09:56:56.631Z,100608.77
2023-01-29T09:59:27.340Z,100607.69
2023-01-29T10:02:19.428Z,100608.39
2023-01-29T10:05:06.566Z,100605.02
2023-01-29T10:08:00.558Z,100599.91
2023-01-29T10:10:37.450Z,100590.75
2023-01-29T10:13:45.787Z,100587.08
2023-01-29T10:16:32.732Z,100588.77
2023-01-29T10:19:05.381Z,100587.48
2023-01-29T10:21:49.256Z,100584.56
2023-01-29T10:24:42.134Z,100581.85
2023-01-29T10:27:15.764Z,100573.13
2023-01-29T10:29:45.196Z,100575.64
2023-01-29T10:32:19.200Z,100565.95
2023-01-29T10:34:50.536Z,100565.17
2023-01-29T10:37:28.128Z,100559.63
2023-01-29T10:39:56.768Z,100566.05
2023-01-29T10:42:39.813Z,100557.45
2023-01-29T10:45:50.834Z,100554.68
2023-01-29T10:48:35.589Z,100557.38
2023-01-29T10:51:22.264Z,100560.67
2023-01-29T10:54:15.183Z,100557.73
2023-01-29T10:57:05.886Z,100556.36
2023-01-29T10:59:40.384Z,100556.44
2023-01-29T11:02:18.534Z,100556.02
2023-01-29T11:04:47.565Z,100555.96
2023-01-29T11:07:18.268Z,100552.30
2023-01-29T11:10:08.593Z,100548.86
2023-01-29T11:12:39.073Z,100554.23
2023-01-29T11:15:13.322Z,100559.25
2023-01-29T11:18:21.167Z,100552.76
2023-01-29T11:21:00.754Z,100553.82
2023-01-29T11:23:32.151Z,100554.35
2023-01-29T11:26:00.841Z,100555.29
2023-01-29T11:28:37.121Z,100554.63
2023-01-29T11:31:22.108Z,100554.98
2023-01-29T11:33:52.749Z,100553.21
2023-01-29T11:36:35.512Z,100558.31
2023-01-29T11:39:18.066Z,100558.40
2023-01-29T11:41:51.195Z,100556.66
2023-01-29T11:44:20.944Z,100560.88
2023-01-29T11:46:49.853Z,100560.66
2023-01-29T11:49:32.912Z,100557.98
2023-01-29T11:52:03.385Z,100559.25
2023-01-29T11:54:37.084Z,100563.14
2023-01-29T11:57:20.927Z,100568.16
2023-01-29T11:59:51.065Z,100571.92
2023-01-29T12:02:19.969Z,100573.39
2023-01-29T12:04:48.689Z,100573.70
2023-01-29T12:07:18.412Z,100575.98
2023-01-29T12:09:52.406Z,100577.66
2023-01-29T12:12:32.359Z,100580.64
2023-01-29T12:15:21.784Z,100579.17
2023-01-29T12:18:33.921Z,100573.77
2023-01-29T12:21:04.050Z,100580.91
2023-01-29T12:23:50.362Z,100579.88
2023-01-29T12:26:38.952Z,100582.23
2023-01-29T12:29:16.558Z,100579.48
2023-01-29T12:32:03.721Z,100580.19
2023-01-29T12:35:06.943Z,100577.77
2023-01-29T12:37:53.530Z,100582.63
2023-01-29T12:40:40.857Z,100579.77
2023-01-29T12:43:17.556Z,100582.13
2023-01-29T12:45:49.531Z,100587.08
2023-01-29T12:48:24.827Z,100588.92
2023-01-29T12:50:54.417Z,100588.09
2023-01-29T12:53:27.126Z,100590.05
2023-01-29T12:56:02.374Z,100591.41
2023-01-29T12:58:36.744Z,100590.14
2023-01-29T13:01:18.232Z,100584.96
2023-01-29T13:03:49.673Z,100591.02
2023-01-29T13:06:21.721Z,100597.52
2023-01-29T13:08:53.974Z,100595.63
2023-01-29T13:11:29.659Z,100596.42
2023-01-29T13:14:12.953Z,100594.98
2023-01-29T13:16:43.563Z,100598.81
2023-01-29T13:19:41.296Z,100605.92
2023-01-29T13:22:20.400Z,100606.42
2023-01-29T13:24:58.725Z,100609.45
2023-01-29T13:27:34.357Z,100608.66
2023-01-29T13:30:03.499Z,100616.20
2023-01-29T13:32:33.151Z,100615.38
2023-01-29T13:35:03.986Z,100617.62
2023-01-29T13:37:40.150Z,100618.39
2023-01-29T13:40:18.376Z,100617.16
2023-01-29T13:42:47.773Z,100620.20
2023-01-29T13:45:29.051Z,100618.90
2023-01-29T13:48:09.957Z,100618.55
2023-01-29T13:50:40.612Z,100623.54
2023-01-29T13:53:17.766Z,100626.30
2023-01-29T13:55:46.162Z,100625.86
2023-01-29T13:58:16.885Z,100626.64
2023-01-29T14:00:49.463Z,100628.73
2023-01-29T14:03:17.933Z,100633.04
2023-01-29T14:06:02.408Z,100630.43
2023-01-29T14:08:39.021Z,100631.28
2023-01-29T14:11:15.691Z,100632.56
2023-01-29T14:13:47.674Z,100631.69
2023-01-29T14:16:17.785Z,100635.94
2023-01-29T14:19:02.624Z,100640.89
2023-01-29T14:21:35.286Z,100646.08
2023-01-29T14:24:10.283Z,100645.90
2023-01-29T14:26:39.136Z,100646.96
2023-01-29T14:29:21.302Z,100652.92
2023-01-29T14:32:20.674Z,100652.36
2023-01-29T14:34:51.071Z,100651.41
2023-01-29T14:37:45.500Z,100651.67
2023-01-29T14:40:23.031Z,100658.50
2023-01-29T14:43:07.844Z,100659.89
2023-01-29T14:45:37.970Z,100660.55
2023-01-29T14:48:12.495Z,100657.77
2023-01-29T14:50:42.154Z,100660.24
2023-01-29T14:53:26.284Z,100664.55
2023-01-29T14:55:54.817Z,100667.80
2023-01-29T14:58:44.700Z,100670.93
2023-01-29T15:01:36.701Z,100672.45
2023-01-29T15:04:27.287Z,100676.13
2023-01-29T15:07:09.533Z,100678.48
2023-01-29T15:09:45.844Z,100679.70
2023-01-29T15:12:18.375Z,100677.20
2023-01-29T15:15:01.720Z,100675.72
2023-01-29T15:17:58.242Z,100675.73
2023-01-29T15:20:26.874Z,100670.30
2023-01-29T15:22:57.553Z,100663.18
2023-01-29T15:25:34.981Z,100662.98
2023-01-29T15:28:08.703Z,100668.06
2023-01-29T15:30:37.930Z,100663.22
2023-01-29T15:33:07.868Z,100662.94
2023-01-29T15:35:38.468Z,100662.02
2023-01-29T15:38:08.005Z,100658.98
2023-01-29T15:40:39.114Z,100662.79
2023-01-29T15:43:31.418Z,100672.13
2023-01-29T15:46:11.134Z,100672.59
2023-01-29T15:48:41.813Z,100671.39
2023-01-29T15:51:15.761Z,100674.12
2023-01-29T15:53:52.019Z,100676.38
2023-01-29T15:56:28.821Z,100685.27
2023-01-29T15:58:58.450Z,100690.25
2023-01-29T16:01:27.833Z,100697.20
2023-01-29T16:03:59.352Z,100694.10
2023-01-29T16:06:35.026Z,100693.52
2023-01-29T16:09:05.638Z,100694.41
2023-01-29T16:11:35.074Z,100697.27
2023-01-29T16:14:04.342Z,100697.95
2023-01-29T16:24:41.177Z,100707.39
2023-01-29T16:26:38.237Z,100698.19
2023-01-29T16:27:15.946Z,100699.14
2023-01-29T16:30:39.796Z,100704.43
2023-01-29T16:33:46.651Z,100705.34
2023-01-29T16:36:25.053Z,100713.30
2023-01-29T16:39:06.493Z,100703.81
2023-01-29T16:41:36.232Z,100707.96
2023-01-29T16:44:17.207Z,100706.35
2023-01-29T16:46:46.999Z,100703.58
2023-01-29T16:49:42.745Z,100703.42
2023-01-29T16:52:36.897Z,100707.91
2023-01-29T16:55:11.771Z,100707.39
2023-01-29T16:57:40.432Z,100702.12
2023-01-29T17:00:19.023Z,100701.14
2023-01-29T17:02:47.499Z,100703.77
2023-01-29T17:05:31.336Z,100704.40
2023-01-29T17:08:25.038Z,100707.31
2023-01-29T17:10:53.639Z,100702.81
2023-01-29T17:13:31.452Z,100710.52
2023-01-29T17:16:03.147Z,100709.66
2023-01-29T17:18:31.630Z,100713.86
2023-01-29T17:21:00.666Z,100712.36
2023-01-29T17:23:29.301Z,100713.36
2023-01-29T17:25:57.945Z,100704.36
2023-01-29T17:28:26.913Z,100703.66
2023-01-29T17:31:05.938Z,100704.80
2023-01-29T17:33:42.105Z,100709.63
2023-01-29T17:36:15.503Z,100710.63
2023-01-29T17:38:44.348Z,100708.45
2023-01-29T17:41:18.165Z,100711.42
2023-01-29T17:43:47.157Z,100714.68
2023-01-29T17:46:16.833Z,100710.74
2023-01-29T17:48:46.217Z,100713.25
2023-01-29T17:51:16.601Z,100717.89
2023-01-29T17:53:48.010Z,100718.08
2023-01-29T17:56:17.852Z,100718.16
2023-01-29T17:58:47.373Z,100712.27
2023-01-29T18:01:16.400Z,100714.29
2023-01-29T18:03:47.986Z,100712.62
2023-01-29T18:06:22.593Z,100718.27
2023-01-29T18:08:51.641Z,100719.20
2023-01-29T18:11:20.268Z,100724.80
2023-01-29T18:13:49.022Z,100720.99
2023-01-29T18:16:22.267Z,100718.60
2023-01-29T18:18:52.034Z,100721.27
2023-01-29T18:21:20.766Z,100715.22
2023-01-29T18:23:49.283Z,100710.52
2023-01-29T18:26:18.277Z,100709.19
2023-01-29T18:28:46.836Z,100698.44
2023-01-29T18:31:15.667Z,100692.35
2023-01-29T18:33:44.315Z,100685.26
2023-01-29T18:36:12.808Z,100688.21
2023-01-29T18:38:42.199Z,100685.30
2023-01-29T18:41:11.361Z,100685.38
2023-01-29T18:43:40.602Z,100689.38
2023-01-29T18:46:09.374Z,100688.87
2023-01-29T18:48:45.695Z,100689.36
2023-01-29T18:51:14.464Z,100690.98
2023-01-29T18:53:47.249Z,100688.77
2023-01-29T18:56:16.322Z,100687.63
2023-01-29T18:58:52.253Z,100688.42
2023-01-29T19:01:24.742Z,100683.45
2023-01-29T19:03:57.092Z,100683.19
2023-01-29T19:06:26.569Z,100683.42
2023-01-29T19:09:16.577Z,100685.84
2023-01-29T19:11:46.842Z,100688.90
2023-01-29T19:14:22.278Z,100694.02
2023-01-29T19:16:51.323Z,100697.46
2023-01-29T19:19:20.547Z,100701.46
2023-01-29T19:21:52.712Z,100704.96
2023-01-29T19:24:21.596Z,100706.52
2023-01-29T19:26:50.179Z,100710.00
2023-01-29T19:29:18.823Z,100712.75
2023-01-29T19:31:49.214Z,100719.73
2023-01-29T19:34:17.879Z,100721.71
2023-01-29T19:36:46.461Z,100729.52
2023-01-29T19:39:16.240Z,100729.47
2023-01-29T19:41:45.506Z,100732.48
2023-01-29T19:44:14.190Z,100732.44
2023-01-29T19:46:42.957Z,100740.34
2023-01-29T19:49:11.752Z,100739.66
2023-01-29T19:51:41.741Z,100737.85
2023-01-29T19:54:10.298Z,100738.88
2023-01-29T19:56:39.363Z,100737.80
2023-01-29T19:59:11.376Z,100732.73
2023-01-29T20:01:40.377Z,100730.07
2023-01-29T20:08:48.721Z,100727.67
2023-01-29T20:11:45.505Z,100730.76
2023-01-29T20:14:43.412Z,100729.08
2023-01-29T20:17:12.376Z,100726.97
2023-01-29T20:19:40.813Z,100726.30
2023-01-29T20:22:09.263Z,100729.17
2023-01-29T20:24:42.498Z,100730.95
2023-01-29T20:27:11.951Z,100724.92
2023-01-29T20:29:41.974Z,100719.95
2023-01-29T20:32:11.793Z,100724.66
2023-01-29T20:34:41.184Z,100727.52
2023-01-29T20:37:09.463Z,100728.36
2023-01-29T20:39:37.932Z,100726.38
2023-01-29T20:42:06.275Z,100728.89
2023-01-29T20:44:35.391Z,100733.23
2023-01-29T20:47:04.396Z,100736.13
2023-01-29T20:49:34.443Z,100734.09
2023-01-29T20:52:03.032Z,100734.71
2023-01-29T20:54:33.488Z,100733.03
2023-01-29T20:57:04.348Z,100732.20
2023-01-29T20:59:34.020Z,100734.89
2023-01-29T21:02:03.558Z,100737.58
2023-01-29T21:04:34.634Z,100741.41
2023-01-29T21:07:04.186Z,100748.06
2023-01-29T21:09:33.552Z,100750.45
2023-01-29T21:12:01.959Z,100755.53
2023-01-29T21:14:34.233Z,100752.65
2023-01-29T21:17:03.568Z,100756.70
2023-01-29T21:19:32.091Z,100758.65
2023-01-29T21:22:00.553Z,100759.56
2023-01-29T21:24:29.278Z,100760.35
2023-01-29T21:26:58.287Z,100765.66
2023-01-29T21:29:27.141Z,100760.44
2023-01-29T21:31:55.649Z,100752.98
2023-01-29T21:34:24.366Z,100754.23
2023-01-29T21:36:53.006Z,100756.93
2023-01-29T21:39:24.474Z,100758.02
2023-01-29T21:42:12.037Z,100751.54
2023-01-29T21:44:40.899Z,100750.78
2023-01-29T21:47:12.920Z,100747.35
2023-01-29T21:49:42.250Z,100751.02
2023-01-29T21:52:12.731Z,100751.13
2023-01-29T21:54:41.535Z,100753.56
2023-01-29T21:57:12.616Z,100748.30
2023-01-29T21:59:42.463Z,100749.85
2023-01-29T22:02:17.188Z,100750.30
2023-01-29T22:04:45.962Z,100755.34
2023-01-29T22:07:14.773Z,100755.41
2023-01-29T22:09:43.384Z,100756.85
2023-01-29T22:12:16.055Z,100755.27
2023-01-29T22:14:47.814Z,100756.37
2023-01-29T22:17:20.314Z,100755.95
2023-01-29T22:19:49.168Z,100759.16
2023-01-29T22:22:18.572Z,100760.47
2023-01-29T22:24:47.040Z,100761.27
2023-01-29T22:27:15.992Z,100755.61
2023-01-29T22:29:44.467Z,100755.82
2023-01-29T22:32:13.527Z,100750.69
2023-01-29T22:34:42.152Z,100752.12
2023-01-29T22:37:10.801Z,100758.80
2023-01-29T22:39:39.698Z,100757.42
2023-01-29T22:42:08.343Z,100759.50
2023-01-29T22:44:36.824Z,100762.63
2023-01-29T22:47:05.296Z,100766.64
2023-01-29T22:49:33.833Z,100767.41
2023-01-29T22:52:11.612Z,100768.30
2023-01-29T22:54:41.960Z,100763.59
2023-01-29T22:57:12.352Z,100758.32
2023-01-29T22:59:41.358Z,100753.77
2023-01-29T23:02:10.007Z,100749.73
2023-01-29T23:04:39.359Z,100750.80
2023-01-29T23:07:07.876Z,100750.44
2023-01-29T23:09:36.346Z,100750.74
2023-01-29T23:12:05.415Z,100754.13
2023-01-29T23:14:35.883Z,100755.06
2023-01-29T23:17:04.278Z,100751.76
2023-01-29T23:19:32.624Z,100751.30
2023-01-29T23:22:01.006Z,100747.42
2023-01-29T23:24:29.496Z,100743.13
2023-01-29T23:27:16.100Z,100747.58
2023-01-29T23:29:45.573Z,100749.86
2023-01-29T23:32:16.217Z,100749.46
2023-01-29T23:34:44.650Z,100748.31
2023-01-29T23:37:13.361Z,100744.08
2023-01-29T23:39:42.296Z,100739.25
2023-01-29T23:42:11.485Z,100739.29
2023-01-29T23:44:40.683Z,100741.15
2023-01-29T23:47:09.268Z,100742.80
2023-01-29T23:49:38.087Z,100742.30
2023-01-29T23:52:06.591Z,100750.59
2023-01-29T23:54:35.571Z,100752.12
2023-01-29T23:57:04.093Z,100745.93
2023-01-29T23:59:32.860Z,100748.88
